ADDS METAR Data INFO
IDs: Format: Raw Decoded Include TAF

Data at: 2306 UTC 16 Jan 2018

METAR for:K42J (Keystone Airpark, FL, US)
Text:K42J 162255Z AUTO 08003KT 10SM CLR 14/07 A3032 RMK AO1 TSNO
Temperature: 14.0°C ( 57°F)
Dewpoint: 7.0°C ( 45°F) [RH = 63%]
Pressure (altimeter):30.32 inches Hg (1026.8 mb)
Winds:from the E (80 degrees) at 3 MPH (3 knots; 1.5 m/s)
Visibility:10 or more sm (16+ km)
Ceiling:at least 12,000 feet AGL
Clouds:sky clear below 12,000 feet AGL
QC Flag:automated observation with no human augmentation